Lions Head, Canada
Current Conditions -  °F | °C
As of 1:00 AM on Thursday 27 Nov 2014 (Local Time) from CYVV Reporting Station
Snow Showers Snow Showers  
Wind Chill: 21°   Ceiling: 4100
Heat Index: 28°   Visibility: 15mi
Dew Point: 23°   Wind: 7mph
Humidity: 80%   Direction: 120°ESE
Pressure: 30.07"   Gusts: NA
Location:  44.98°N, 81.26°W
Report Text: CYVV 270600Z 12006KT 15SM -SHSN OVC041 M02/M05 A3007 RMK SC8 SLP192
Loading
Personal Weather Stations






























Interactive Weather Map New forecast layout! Learn more

10-Day Weather Forecast

Advertisements
Track Severe Weather on mobile